Arlington, New Jersey
Current Conditions -  °F | °C
As of 2:51 PM on Friday 21 Nov 2014 (Local Time) from KEWR Reporting Station
Few Clouds Few Clouds  
Wind Chill: 28°   Ceiling: Unl
Heat Index: 38°   Visibility: 10mi
Dew Point:   Wind: 18mph
Humidity: 27%   Direction: 310°NW
Pressure: 30.35"   Gusts: 23mph
Location:  40.7563°N, 74.1217°W
Report Text: KEWR 211951Z 31016G20KT 10SM FEW065 03/M14 A3035 RMK AO2 SLP275 T00331144 $
Loading
Personal Weather Stations






























Interactive Weather Map New forecast layout! Learn more

10-Day Weather Forecast

Advertisements
Track Severe Weather on mobile